Time;durP1;ratioP1;P1;durP2;ratioP2;P2;SDS_P1;SDS_P2;PMS_P1;PMS_P2;Temp;Humidity;BMP_temperature;BMP_pressure;BME280_temperature;BME280_humidity;BME280_pressure;Samples;Min_cycle;Max_cycle;Signal;HPM_P1;HPM_P2
2023/06/18 00:02:01;;;;;;;28.45;23.52;;;;;;;;;;5154678;27;20046;-75
2023/06/18 00:04:27;;;;;;;30.42;22.38;;;;;;;;;;5154361;27;20479;-75
2023/06/18 00:06:54;;;;;;;27.70;22.35;;;;;;;;;;5136028;27;20039;-75
2023/06/18 00:09:20;;;;;;;31.45;23.77;;;;;;;;;;5154292;27;20107;-75
2023/06/18 00:11:46;;;;;;;30.20;22.55;;;;;;;;;;5118541;27;20510;-75
2023/06/18 00:14:12;;;;;;;29.63;23.30;;;;;;;;;;5135892;27;20462;-75
2023/06/18 00:16:38;;;;;;;29.23;22.45;;;;;;;;;;5118697;27;20049;-75
2023/06/18 00:19:05;;;;;;;31.13;22.52;;;;;;;;;;5135647;27;20085;-75
2023/06/18 00:21:31;;;;;;;29.17;22.67;;;;;;;;;;5135633;27;20061;-75
2023/06/18 00:23:57;;;;;;;31.63;23.25;;;;;;;;;;5154158;27;20030;-75
2023/06/18 00:26:25;;;;;;;27.92;22.10;;;;;;;;;;5154002;27;20570;-75
2023/06/18 00:28:51;;;;;;;28.70;23.15;;;;;;;;;;5118036;27;20078;-75
2023/06/18 00:31:18;;;;;;;30.73;23.50;;;;;;;;;;5135446;27;20344;-75
2023/06/18 00:33:46;;;;;;;31.42;24.02;;;;;;;;;;5118353;27;20487;-75
2023/06/18 00:36:13;;;;;;;31.08;23.00;;;;;;;;;;5118634;27;20051;-75
2023/06/18 00:38:45;;;;;;;29.88;23.00;;;;;;;;;;5135711;27;20494;-75
2023/06/18 00:41:11;;;;;;;29.92;22.30;;;;;;;;;;5118686;27;20107;-75
2023/06/18 00:43:38;;;;;;;30.58;22.77;;;;;;;;;;5118877;27;20046;-75
2023/06/18 00:46:05;;;;;;;30.17;23.27;;;;;;;;;;5135483;27;20073;-77
2023/06/18 00:48:31;;;;;;;30.10;23.38;;;;;;;;;;5135296;27;20039;-76
2023/06/18 00:50:59;;;;;;;32.95;25.05;;;;;;;;;;5118191;27;20095;-76
2023/06/18 00:53:26;;;;;;;31.52;23.98;;;;;;;;;;5118235;27;20057;-76
2023/06/18 00:55:52;;;;;;;31.42;22.50;;;;;;;;;;5135358;27;20043;-76
2023/06/18 00:58:23;;;;;;;32.03;23.73;;;;;;;;;;5135464;27;20466;-76
2023/06/18 01:00:50;;;;;;;31.27;23.50;;;;;;;;;;5135070;27;20057;-76
2023/06/18 01:03:17;;;;;;;30.77;24.10;;;;;;;;;;5135385;27;20440;-76
2023/06/18 01:05:49;;;;;;;33.45;25.38;;;;;;;;;;5117586;27;20053;-74
2023/06/18 01:08:17;;;;;;;30.83;24.40;;;;;;;;;;5135231;27;20051;-75
2023/06/18 01:10:44;;;;;;;30.23;24.02;;;;;;;;;;5118153;27;20401;-75
2023/06/18 01:13:14;;;;;;;30.23;23.63;;;;;;;;;;5135556;27;20402;-76
2023/06/18 01:15:41;;;;;;;35.25;25.77;;;;;;;;;;5134922;27;20050;-76
2023/06/18 01:18:07;;;;;;;32.25;24.17;;;;;;;;;;5118266;27;20465;-76
2023/06/18 01:20:40;;;;;;;33.38;25.08;;;;;;;;;;5135201;27;20050;-76
2023/06/18 01:23:27;;;;;;;31.98;24.85;;;;;;;;;;5120873;27;20486;-76
2023/06/18 01:25:57;;;;;;;32.25;25.50;;;;;;;;;;5122108;27;20498;-76
2023/06/18 01:28:24;;;;;;;33.20;24.92;;;;;;;;;;5121963;27;20161;-76
2023/06/18 01:30:53;;;;;;;31.42;24.40;;;;;;;;;;5138923;27;20038;-76
2023/06/18 01:33:21;;;;;;;33.35;25.88;;;;;;;;;;5157477;27;20039;-76
2023/06/18 01:35:48;;;;;;;31.80;23.52;;;;;;;;;;5138683;27;20063;-76
2023/06/18 01:38:33;;;;;;;31.50;23.33;;;;;;;;;;5122020;27;20483;-76
2023/06/18 01:41:02;;;;;;;35.65;25.40;;;;;;;;;;5121441;27;20098;-74
2023/06/18 01:43:41;;;;;;;34.42;24.30;;;;;;;;;;5157490;27;20134;-75
2023/06/18 01:46:10;;;;;;;31.52;23.80;;;;;;;;;;5157538;27;20379;-75
2023/06/18 01:48:45;;;;;;;29.95;23.25;;;;;;;;;;5121689;27;20042;-75
2023/06/18 01:51:13;;;;;;;31.95;24.05;;;;;;;;;;5121729;27;20344;-75
2023/06/18 01:53:40;;;;;;;34.03;24.83;;;;;;;;;;5115738;27;20418;-75
2023/06/18 01:56:09;;;;;;;35.13;26.23;;;;;;;;;;5118145;27;20046;-77
2023/06/18 01:58:36;;;;;;;31.15;23.95;;;;;;;;;;5136609;27;20047;-76
2023/06/18 02:01:02;;;;;;;32.92;24.77;;;;;;;;;;5117661;27;20051;-75
2023/06/18 02:03:29;;;;;;;31.30;24.23;;;;;;;;;;5117850;27;20058;-75
2023/06/18 02:05:55;;;;;;;35.20;25.60;;;;;;;;;;5117560;27;20043;-75
2023/06/18 02:08:21;;;;;;;35.65;26.00;;;;;;;;;;5136122;27;20445;-75
2023/06/18 02:10:47;;;;;;;32.85;23.92;;;;;;;;;;5100453;27;20075;-75
2023/06/18 02:13:13;;;;;;;35.58;26.35;;;;;;;;;;5135983;27;20049;-75
2023/06/18 02:15:41;;;;;;;36.90;25.88;;;;;;;;;;5100159;27;20074;-75
2023/06/18 02:18:08;;;;;;;31.42;24.83;;;;;;;;;;5117158;27;20079;-75
2023/06/18 02:20:35;;;;;;;36.58;25.73;;;;;;;;;;5116850;27;20141;-75
2023/06/18 02:23:01;;;;;;;36.08;25.85;;;;;;;;;;5101424;27;20087;-75
2023/06/18 02:25:30;;;;;;;34.42;25.23;;;;;;;;;;5138129;27;20038;-74
2023/06/18 02:27:57;;;;;;;37.15;26.00;;;;;;;;;;5136429;27;20510;-75
2023/06/18 02:30:23;;;;;;;32.83;25.25;;;;;;;;;;5119082;27;20039;-75
2023/06/18 02:32:49;;;;;;;38.92;26.70;;;;;;;;;;5137201;27;20504;-75
2023/06/18 02:35:16;;;;;;;36.53;25.63;;;;;;;;;;5136270;27;20632;-75
2023/06/18 02:37:42;;;;;;;35.17;26.13;;;;;;;;;;5119866;27;20137;-75
2023/06/18 02:40:09;;;;;;;35.90;25.55;;;;;;;;;;5137611;27;20039;-75
2023/06/18 02:42:35;;;;;;;37.95;27.83;;;;;;;;;;5121037;27;20095;-75
2023/06/18 02:45:02;;;;;;;37.88;27.70;;;;;;;;;;5139088;27;20047;-75
2023/06/18 02:47:29;;;;;;;37.75;27.27;;;;;;;;;;5120298;27;20125;-75
2023/06/18 02:49:55;;;;;;;39.28;28.73;;;;;;;;;;5120188;27;20046;-74
2023/06/18 02:52:21;;;;;;;35.05;26.40;;;;;;;;;;5120564;27;20129;-76
2023/06/18 02:54:48;;;;;;;36.28;28.02;;;;;;;;;;5104405;27;20096;-75
2023/06/18 02:57:14;;;;;;;35.40;25.85;;;;;;;;;;5117131;27;20096;-75
2023/06/18 02:59:40;;;;;;;34.47;24.77;;;;;;;;;;5135056;27;20108;-75
2023/06/18 03:02:06;;;;;;;31.25;23.95;;;;;;;;;;5135272;27;20043;-75
2023/06/18 03:04:32;;;;;;;51.10;23.30;;;;;;;;;;5115307;27;20122;-75
2023/06/18 03:07:03;;;;;;;28.42;22.02;;;;;;;;;;5133050;27;20043;-75
2023/06/18 03:09:29;;;;;;;28.13;21.65;;;;;;;;;;5116212;27;20059;-75
2023/06/18 03:11:55;;;;;;;27.98;21.80;;;;;;;;;;5116454;27;20149;-75
2023/06/18 03:14:22;;;;;;;30.55;22.58;;;;;;;;;;5116552;27;20085;-75
2023/06/18 03:16:48;;;;;;;31.52;23.77;;;;;;;;;;5116436;27;20491;-75
2023/06/18 03:19:14;;;;;;;32.63;23.65;;;;;;;;;;5116080;27;20079;-75
2023/06/18 03:21:40;;;;;;;65.50;25.38;;;;;;;;;;5116477;27;20095;-75
2023/06/18 03:24:07;;;;;;;32.92;24.08;;;;;;;;;;5145179;27;20041;-75
2023/06/18 03:26:36;;;;;;;35.88;25.15;;;;;;;;;;5155595;27;20043;-75
2023/06/18 03:29:02;;;;;;;32.45;24.30;;;;;;;;;;5155267;27;20114;-75
2023/06/18 03:31:28;;;;;;;46.55;26.00;;;;;;;;;;5155060;27;20038;-75
2023/06/18 03:33:54;;;;;;;40.40;25.02;;;;;;;;;;5155210;27;20049;-75
2023/06/18 03:36:20;;;;;;;30.55;23.63;;;;;;;;;;5155019;27;20085;-75
2023/06/18 03:38:46;;;;;;;34.10;24.30;;;;;;;;;;5154994;27;20433;-75
2023/06/18 03:41:14;;;;;;;32.55;23.77;;;;;;;;;;5154973;27;20039;-75
2023/06/18 03:43:40;;;;;;;39.80;26.08;;;;;;;;;;5155285;27;20070;-75
2023/06/18 03:46:06;;;;;;;37.25;24.60;;;;;;;;;;5154396;27;20068;-75
2023/06/18 03:48:32;;;;;;;39.25;25.10;;;;;;;;;;5154854;27;20039;-75
2023/06/18 03:50:58;;;;;;;32.25;23.75;;;;;;;;;;5154603;27;20502;-74
2023/06/18 03:53:24;;;;;;;30.98;23.20;;;;;;;;;;5154585;27;20110;-74
2023/06/18 03:55:50;;;;;;;33.63;23.92;;;;;;;;;;5154564;27;20077;-75
2023/06/18 03:58:18;;;;;;;32.42;24.10;;;;;;;;;;5154954;27;20395;-75
2023/06/18 04:00:44;;;;;;;32.40;23.17;;;;;;;;;;5154420;27;20070;-75
2023/06/18 04:03:10;;;;;;;39.63;22.73;;;;;;;;;;5136482;27;20046;-74
2023/06/18 04:05:37;;;;;;;32.92;23.30;;;;;;;;;;5154515;27;20093;-75
2023/06/18 04:08:03;;;;;;;33.63;22.98;;;;;;;;;;5154275;27;20051;-75
2023/06/18 04:10:29;;;;;;;33.10;22.77;;;;;;;;;;5135673;27;20050;-75
2023/06/18 04:12:55;;;;;;;45.70;24.33;;;;;;;;;;5154572;27;20402;-75
2023/06/18 04:15:21;;;;;;;34.72;23.60;;;;;;;;;;5154496;27;20433;-76
2023/06/18 04:17:47;;;;;;;34.28;22.48;;;;;;;;;;5135313;27;20130;-75
2023/06/18 04:20:14;;;;;;;31.73;22.50;;;;;;;;;;5153413;27;20062;-75
2023/06/18 04:22:40;;;;;;;30.90;21.60;;;;;;;;;;5134561;27;20046;-75
2023/06/18 04:25:06;;;;;;;29.98;21.45;;;;;;;;;;5135355;27;20138;-75
2023/06/18 04:27:32;;;;;;;27.25;20.33;;;;;;;;;;5154431;27;20122;-74
2023/06/18 04:29:58;;;;;;;28.10;19.55;;;;;;;;;;5154250;27;20410;-75
2023/06/18 04:32:24;;;;;;;29.00;20.50;;;;;;;;;;5154314;27;20142;-75
2023/06/18 04:34:50;;;;;;;26.27;19.42;;;;;;;;;;5153803;27;20440;-75
2023/06/18 04:37:16;;;;;;;25.40;18.80;;;;;;;;;;5135506;27;20119;-75
2023/06/18 04:39:42;;;;;;;28.33;19.00;;;;;;;;;;5135422;27;20095;-75
2023/06/18 04:42:09;;;;;;;26.77;20.27;;;;;;;;;;5154082;27;20089;-75
2023/06/18 04:44:35;;;;;;;26.42;19.17;;;;;;;;;;5135648;27;20445;-75
2023/06/18 04:47:03;;;;;;;25.15;19.17;;;;;;;;;;5153832;27;20043;-75
2023/06/18 04:49:30;;;;;;;26.15;19.85;;;;;;;;;;5135404;27;20427;-75
2023/06/18 04:51:56;;;;;;;31.85;21.38;;;;;;;;;;5153805;27;20082;-75
2023/06/18 04:54:22;;;;;;;30.00;21.55;;;;;;;;;;5135073;27;20047;-75
2023/06/18 04:56:48;;;;;;;28.30;20.67;;;;;;;;;;5154494;27;20035;-75
2023/06/18 04:59:14;;;;;;;22.73;18.27;;;;;;;;;;5158462;27;20062;-76
2023/06/18 05:01:40;;;;;;;27.33;19.75;;;;;;;;;;5158289;27;20389;-75
2023/06/18 05:04:06;;;;;;;29.42;21.05;;;;;;;;;;5139754;27;20042;-75
2023/06/18 05:06:32;;;;;;;25.48;19.98;;;;;;;;;;5157568;27;20394;-75
2023/06/18 05:08:58;;;;;;;27.15;21.38;;;;;;;;;;5157825;27;20072;-75
2023/06/18 05:11:24;;;;;;;34.95;19.83;;;;;;;;;;5139570;27;20437;-75
2023/06/18 05:13:50;;;;;;;25.05;19.92;;;;;;;;;;5157302;27;20043;-75
2023/06/18 05:16:16;;;;;;;30.88;21.00;;;;;;;;;;5139491;27;20047;-75
2023/06/18 05:18:42;;;;;;;27.15;20.25;;;;;;;;;;5139298;27;20422;-75
2023/06/18 05:21:08;;;;;;;24.77;19.60;;;;;;;;;;5122028;27;20042;-76
2023/06/18 05:23:35;;;;;;;24.98;19.25;;;;;;;;;;5121828;27;20038;-76
2023/06/18 05:26:01;;;;;;;24.67;19.35;;;;;;;;;;5121428;27;20086;-75
2023/06/18 05:28:27;;;;;;;23.40;18.65;;;;;;;;;;5157531;27;20039;-76
2023/06/18 05:30:53;;;;;;;23.45;18.70;;;;;;;;;;5122038;27;20042;-75
2023/06/18 05:33:19;;;;;;;22.27;17.88;;;;;;;;;;5139018;27;20046;-76
2023/06/18 05:35:45;;;;;;;24.85;18.58;;;;;;;;;;5138866;27;20086;-76
2023/06/18 05:38:11;;;;;;;24.10;18.25;;;;;;;;;;5139149;27;20407;-76
2023/06/18 05:40:37;;;;;;;22.98;18.10;;;;;;;;;;5121545;27;20038;-76
2023/06/18 05:43:03;;;;;;;22.17;17.13;;;;;;;;;;5121674;27;20038;-76
2023/06/18 05:45:30;;;;;;;21.65;17.63;;;;;;;;;;5157498;27;20384;-74
2023/06/18 05:47:56;;;;;;;20.42;16.67;;;;;;;;;;5121427;27;20054;-75
2023/06/18 05:50:22;;;;;;;22.55;17.65;;;;;;;;;;5138692;27;20448;-74
2023/06/18 05:52:48;;;;;;;21.17;15.90;;;;;;;;;;5138609;27;20064;-76
2023/06/18 05:55:14;;;;;;;20.65;16.27;;;;;;;;;;5101116;27;20069;-76
2023/06/18 05:57:41;;;;;;;20.00;16.58;;;;;;;;;;5136655;27;20046;-75
2023/06/18 06:00:08;;;;;;;20.38;15.70;;;;;;;;;;5136069;27;20039;-76
2023/06/18 06:02:34;;;;;;;20.27;16.92;;;;;;;;;;5135179;27;20053;-76
2023/06/18 06:05:00;;;;;;;20.67;15.75;;;;;;;;;;5134832;27;20108;-76
2023/06/18 06:07:26;;;;;;;19.10;15.60;;;;;;;;;;5133593;27;20035;-76
2023/06/18 06:09:52;;;;;;;19.15;15.38;;;;;;;;;;5135730;27;20099;-76
2023/06/18 06:12:18;;;;;;;20.05;15.10;;;;;;;;;;5136317;27;20099;-76
2023/06/18 06:14:44;;;;;;;19.45;15.45;;;;;;;;;;5117767;27;20039;-76
2023/06/18 06:17:10;;;;;;;20.05;15.25;;;;;;;;;;5117517;27;20176;-76
2023/06/18 06:19:36;;;;;;;21.05;15.23;;;;;;;;;;5117691;27;20043;-76
2023/06/18 06:22:03;;;;;;;20.85;14.85;;;;;;;;;;5134544;27;20046;-74
2023/06/18 06:24:29;;;;;;;18.23;14.35;;;;;;;;;;5133033;27;20208;-75
2023/06/18 06:26:55;;;;;;;18.40;14.82;;;;;;;;;;5116122;27;20042;-75
2023/06/18 06:29:22;;;;;;;18.38;14.00;;;;;;;;;;5133512;27;20043;-76
2023/06/18 06:31:49;;;;;;;18.40;14.73;;;;;;;;;;5115819;27;20108;-75
2023/06/18 06:34:16;;;;;;;16.50;13.50;;;;;;;;;;5117172;27;20043;-75
2023/06/18 06:36:42;;;;;;;17.02;13.30;;;;;;;;;;5117300;27;20039;-76
2023/06/18 06:39:08;;;;;;;17.40;14.20;;;;;;;;;;5134225;27;20484;-76
2023/06/18 06:41:35;;;;;;;18.25;14.20;;;;;;;;;;5117253;27;20039;-75
2023/06/18 06:44:01;;;;;;;18.10;13.40;;;;;;;;;;5117559;27;20039;-75
2023/06/18 06:46:27;;;;;;;19.10;14.80;;;;;;;;;;5117117;27;20058;-75
2023/06/18 06:48:53;;;;;;;16.98;13.93;;;;;;;;;;5135406;27;20096;-75
2023/06/18 06:51:19;;;;;;;16.63;13.48;;;;;;;;;;5133888;27;20043;-76
2023/06/18 06:53:45;;;;;;;15.00;13.15;;;;;;;;;;5147597;27;20045;-76
2023/06/18 06:56:12;;;;;;;18.02;13.40;;;;;;;;;;5120367;27;20046;-76
2023/06/18 06:58:38;;;;;;;16.38;12.90;;;;;;;;;;5137929;27;20041;-76
2023/06/18 07:01:04;;;;;;;17.17;12.43;;;;;;;;;;5155835;27;20046;-76
2023/06/18 07:03:31;;;;;;;16.63;12.27;;;;;;;;;;5120311;27;20126;-76
2023/06/18 07:05:57;;;;;;;13.23;11.32;;;;;;;;;;5120109;27;20047;-76
2023/06/18 07:08:23;;;;;;;14.52;11.35;;;;;;;;;;5132984;27;20497;-77
2023/06/18 07:10:49;;;;;;;13.93;12.02;;;;;;;;;;5133376;27;20479;-76
2023/06/18 07:13:15;;;;;;;14.98;11.85;;;;;;;;;;5135016;27;20050;-77
2023/06/18 07:15:41;;;;;;;13.73;11.77;;;;;;;;;;5116299;27;20047;-76
2023/06/18 07:18:07;;;;;;;16.25;12.57;;;;;;;;;;5116406;27;20122;-76
2023/06/18 07:20:34;;;;;;;15.45;12.40;;;;;;;;;;5115516;27;20142;-76
2023/06/18 07:23:00;;;;;;;13.75;11.25;;;;;;;;;;5115074;27;20035;-75
2023/06/18 07:25:26;;;;;;;13.45;11.63;;;;;;;;;;5111326;28;20036;-76
2023/06/18 07:27:52;;;;;;;13.75;11.25;;;;;;;;;;5112468;28;20047;-75
2023/06/18 07:30:18;;;;;;;16.27;12.82;;;;;;;;;;5112526;28;20048;-75
2023/06/18 07:32:45;;;;;;;14.63;12.43;;;;;;;;;;5098292;27;20043;-76
2023/06/18 07:35:11;;;;;;;16.58;12.30;;;;;;;;;;5132929;27;20110;-75
2023/06/18 07:37:37;;;;;;;15.20;11.65;;;;;;;;;;5116258;27;20039;-75
2023/06/18 07:40:03;;;;;;;15.68;12.60;;;;;;;;;;5115533;27;20039;-75
2023/06/18 07:42:30;;;;;;;16.05;12.25;;;;;;;;;;5133019;27;20050;-75
2023/06/18 07:44:56;;;;;;;15.70;11.50;;;;;;;;;;5115887;27;20043;-75
2023/06/18 07:47:22;;;;;;;14.43;12.07;;;;;;;;;;5115879;27;20117;-76
2023/06/18 07:49:48;;;;;;;15.95;12.18;;;;;;;;;;5115619;27;20140;-75
2023/06/18 07:52:14;;;;;;;13.50;11.88;;;;;;;;;;5115804;27;20149;-75
2023/06/18 07:54:41;;;;;;;15.60;10.85;;;;;;;;;;5115879;27;20043;-75
2023/06/18 07:57:07;;;;;;;14.40;11.43;;;;;;;;;;5133032;27;20047;-76
2023/06/18 07:59:33;;;;;;;15.82;13.00;;;;;;;;;;5114880;27;20519;-75
2023/06/18 08:01:59;;;;;;;15.65;13.40;;;;;;;;;;5114214;27;20405;-75
2023/06/18 08:04:25;;;;;;;16.23;12.10;;;;;;;;;;5131840;27;20429;-75
2023/06/18 08:06:51;;;;;;;15.05;11.85;;;;;;;;;;5133456;27;20047;-75
2023/06/18 08:09:17;;;;;;;17.05;13.40;;;;;;;;;;5132168;27;20047;-76
2023/06/18 08:11:44;;;;;;;17.20;12.68;;;;;;;;;;5132397;27;20057;-75
2023/06/18 08:14:11;;;;;;;16.65;11.60;;;;;;;;;;5132284;27;20046;-76
2023/06/18 08:16:38;;;;;;;17.55;13.07;;;;;;;;;;5133298;27;20460;-76
2023/06/18 08:19:04;;;;;;;16.40;13.13;;;;;;;;;;5134045;27;20377;-76
2023/06/18 08:21:30;;;;;;;16.15;12.38;;;;;;;;;;5115309;27;20046;-76
2023/06/18 08:23:56;;;;;;;16.25;13.45;;;;;;;;;;5105582;28;20176;-76
2023/06/18 08:26:23;;;;;;;16.33;13.75;;;;;;;;;;5112822;28;20118;-76
2023/06/18 08:28:50;;;;;;;16.08;12.27;;;;;;;;;;5113080;28;20046;-76
2023/06/18 08:31:16;;;;;;;17.15;11.85;;;;;;;;;;5112613;28;20492;-76
2023/06/18 08:33:43;;;;;;;15.98;11.27;;;;;;;;;;5112726;28;20054;-76
2023/06/18 08:36:09;;;;;;;14.52;11.00;;;;;;;;;;5111324;28;20044;-76
2023/06/18 08:38:35;;;;;;;15.35;11.82;;;;;;;;;;5112837;28;20044;-76
2023/06/18 08:41:02;;;;;;;15.43;11.68;;;;;;;;;;5112564;28;20544;-76
2023/06/18 08:43:32;;;;;;;14.40;11.50;;;;;;;;;;5112989;28;20040;-75
2023/06/18 08:46:04;;;;;;;13.27;10.52;;;;;;;;;;5111499;28;20108;-75
2023/06/18 08:48:30;;;;;;;16.83;11.57;;;;;;;;;;5112812;28;20039;-75
2023/06/18 08:51:05;;;;;;;12.40;9.55;;;;;;;;;;5111213;28;20047;-76
2023/06/18 08:53:42;;;;;;;14.57;9.80;;;;;;;;;;5112534;28;20035;-76
2023/06/18 08:56:09;;;;;;;13.63;9.40;;;;;;;;;;5112478;28;20047;-77
2023/06/18 08:58:42;;;;;;;12.30;9.82;;;;;;;;;;5117074;28;20039;-77
2023/06/18 09:01:08;;;;;;;12.70;9.15;;;;;;;;;;5133020;27;20543;-77
2023/06/18 09:03:37;;;;;;;13.48;9.45;;;;;;;;;;5133023;28;20087;-77
2023/06/18 09:06:03;;;;;;;11.63;9.38;;;;;;;;;;5132944;27;20043;-77
2023/06/18 09:08:31;;;;;;;12.00;9.18;;;;;;;;;;5131615;28;20055;-77
2023/06/18 09:10:58;;;;;;;12.32;9.50;;;;;;;;;;5133008;28;20130;-77
2023/06/18 09:13:24;;;;;;;13.57;9.13;;;;;;;;;;5132450;28;20130;-77
2023/06/18 09:15:51;;;;;;;12.63;9.50;;;;;;;;;;5130409;27;20047;-77
2023/06/18 09:18:17;;;;;;;13.52;8.63;;;;;;;;;;5133122;28;20043;-77
2023/06/18 09:20:45;;;;;;;12.88;8.63;;;;;;;;;;5132766;27;20066;-77
2023/06/18 09:23:11;;;;;;;10.32;8.45;;;;;;;;;;5129767;27;20077;-78
2023/06/18 09:25:37;;;;;;;9.60;6.97;;;;;;;;;;5112525;28;20131;-77
2023/06/18 09:28:04;;;;;;;8.75;6.70;;;;;;;;;;5112347;28;20507;-77
2023/06/18 09:30:30;;;;;;;11.40;7.53;;;;;;;;;;5111879;28;20083;-78
2023/06/18 09:33:00;;;;;;;10.85;6.70;;;;;;;;;;5111372;28;20429;-77
2023/06/18 09:35:27;;;;;;;11.18;6.88;;;;;;;;;;5111948;28;20055;-77
2023/06/18 09:37:54;;;;;;;9.98;7.22;;;;;;;;;;5110809;28;20050;-77
2023/06/18 09:40:21;;;;;;;10.93;7.60;;;;;;;;;;5110778;28;20404;-77
2023/06/18 09:42:51;;;;;;;9.20;6.68;;;;;;;;;;5112303;28;20089;-77
2023/06/18 09:45:17;;;;;;;8.45;6.53;;;;;;;;;;5097031;28;20048;-77
2023/06/18 09:47:47;;;;;;;7.85;6.10;;;;;;;;;;5116144;28;20065;-77
2023/06/18 09:50:13;;;;;;;10.05;6.32;;;;;;;;;;5115617;28;20043;-77
2023/06/18 09:52:44;;;;;;;10.93;6.28;;;;;;;;;;5115932;28;20039;-77
2023/06/18 09:55:26;;;;;;;8.45;6.13;;;;;;;;;;5116056;28;20069;-77
2023/06/18 09:57:52;;;;;;;10.48;6.03;;;;;;;;;;5115649;28;20096;-77
2023/06/18 10:00:21;;;;;;;9.05;5.85;;;;;;;;;;5115362;28;20039;-77
2023/06/18 10:02:47;;;;;;;8.25;5.90;;;;;;;;;;5114074;28;20090;-77
2023/06/18 10:05:13;;;;;;;10.25;6.07;;;;;;;;;;5128115;27;20129;-77
2023/06/18 10:07:40;;;;;;;7.75;5.70;;;;;;;;;;5137556;27;20055;-78
2023/06/18 10:10:09;;;;;;;6.65;5.50;;;;;;;;;;5156555;27;20058;-76
2023/06/18 10:12:35;;;;;;;7.68;5.53;;;;;;;;;;5156803;27;20045;-76
2023/06/18 10:15:03;;;;;;;7.05;5.53;;;;;;;;;;5156326;27;20129;-77
2023/06/18 10:17:32;;;;;;;7.15;5.75;;;;;;;;;;5156412;27;20046;-77
2023/06/18 10:20:01;;;;;;;7.57;6.10;;;;;;;;;;5156106;27;20126;-77
2023/06/18 10:22:29;;;;;;;7.13;5.78;;;;;;;;;;5156708;27;20358;-77
2023/06/18 10:24:58;;;;;;;10.38;5.97;;;;;;;;;;5155388;27;20039;-77
2023/06/18 10:27:25;;;;;;;7.68;5.20;;;;;;;;;;5156507;27;20056;-77
2023/06/18 10:29:51;;;;;;;7.90;6.13;;;;;;;;;;5156122;27;20049;-77
2023/06/18 10:32:18;;;;;;;8.45;5.75;;;;;;;;;;5120441;27;20047;-77
2023/06/18 10:34:44;;;;;;;7.93;5.40;;;;;;;;;;5156262;27;20039;-77
2023/06/18 10:37:10;;;;;;;7.97;5.45;;;;;;;;;;5137470;27;20074;-77
2023/06/18 10:39:37;;;;;;;7.43;5.68;;;;;;;;;;5137234;27;20117;-77
2023/06/18 10:42:13;;;;;;;7.97;6.47;;;;;;;;;;5137310;27;20046;-77
2023/06/18 10:44:50;;;;;;;8.68;5.80;;;;;;;;;;5155764;27;20383;-77
2023/06/18 10:47:26;;;;;;;7.85;5.70;;;;;;;;;;5156308;27;20058;-77
2023/06/18 10:50:01;;;;;;;9.35;6.13;;;;;;;;;;5155891;27;20126;-77
2023/06/18 10:52:32;;;;;;;7.10;5.35;;;;;;;;;;5137824;27;20042;-77
2023/06/18 10:55:10;;;;;;;6.93;5.40;;;;;;;;;;5154693;27;20042;-77
2023/06/18 10:57:41;;;;;;;8.15;5.78;;;;;;;;;;5155894;27;20483;-78
2023/06/18 11:00:33;;;;;;;6.35;5.43;;;;;;;;;;5137184;27;20083;-78
2023/06/18 11:03:00;;;;;;;8.07;5.60;;;;;;;;;;5152737;27;20054;-78
2023/06/18 11:05:33;;;;;;;9.25;5.97;;;;;;;;;;5155751;27;20064;-76
2023/06/18 11:08:03;;;;;;;8.98;5.65;;;;;;;;;;5155702;27;20069;-76
2023/06/18 11:10:33;;;;;;;6.20;5.45;;;;;;;;;;5155568;27;20088;-76
2023/06/18 11:12:59;;;;;;;8.02;5.70;;;;;;;;;;5136981;27;20061;-76
2023/06/18 11:15:26;;;;;;;7.85;5.47;;;;;;;;;;5155534;27;20035;-77
2023/06/18 11:17:53;;;;;;;6.80;5.28;;;;;;;;;;5155463;27;20483;-77
2023/06/18 11:20:23;;;;;;;8.25;5.72;;;;;;;;;;5136796;27;20038;-77
2023/06/18 11:22:57;;;;;;;7.60;5.90;;;;;;;;;;5136845;27;20502;-77
2023/06/18 11:25:24;;;;;;;7.30;5.70;;;;;;;;;;5155399;27;20093;-77
2023/06/18 11:27:53;;;;;;;8.98;5.90;;;;;;;;;;5155327;27;20043;-77
2023/06/18 11:30:19;;;;;;;6.88;5.75;;;;;;;;;;5136284;27;20054;-77
2023/06/18 11:32:46;;;;;;;7.65;5.65;;;;;;;;;;5136931;27;20128;-77
2023/06/18 11:35:12;;;;;;;7.55;5.82;;;;;;;;;;5154803;27;20053;-77
2023/06/18 11:37:39;;;;;;;7.82;5.60;;;;;;;;;;5155415;27;20068;-77
2023/06/18 11:40:07;;;;;;;6.63;5.38;;;;;;;;;;5154700;27;20050;-77
2023/06/18 11:42:33;;;;;;;7.47;5.63;;;;;;;;;;5155218;27;20065;-77
2023/06/18 11:45:01;;;;;;;7.00;5.50;;;;;;;;;;5155134;27;20089;-77
2023/06/18 11:47:29;;;;;;;6.32;5.47;;;;;;;;;;5135949;27;20134;-77
2023/06/18 11:49:55;;;;;;;9.10;6.00;;;;;;;;;;5154187;27;20471;-77
2023/06/18 11:52:22;;;;;;;7.20;5.35;;;;;;;;;;5155133;27;20038;-77
2023/06/18 11:54:49;;;;;;;8.23;5.75;;;;;;;;;;5153750;27;20348;-77
2023/06/18 11:57:16;;;;;;;9.52;5.85;;;;;;;;;;5154766;27;20203;-77
2023/06/18 11:59:43;;;;;;;7.97;5.28;;;;;;;;;;5120774;27;20454;-77
2023/06/18 12:02:11;;;;;;;7.10;5.35;;;;;;;;;;5132701;27;20039;-76
2023/06/18 12:04:37;;;;;;;8.10;5.60;;;;;;;;;;5133354;27;20088;-77
2023/06/18 12:07:03;;;;;;;5.82;5.22;;;;;;;;;;5133708;27;20131;-77
2023/06/18 12:09:33;;;;;;;8.13;5.63;;;;;;;;;;5114729;27;20112;-77
2023/06/18 12:12:02;;;;;;;5.88;5.28;;;;;;;;;;5114000;27;20083;-78
2023/06/18 12:14:38;;;;;;;6.07;5.03;;;;;;;;;;5133245;27;20053;-78
2023/06/18 12:17:07;;;;;;;8.23;5.60;;;;;;;;;;5114963;27;20043;-78
2023/06/18 12:19:34;;;;;;;7.75;5.93;;;;;;;;;;5133018;27;20050;-78
2023/06/18 12:22:00;;;;;;;6.90;5.20;;;;;;;;;;5133591;27;20082;-78
2023/06/18 12:24:28;;;;;;;7.38;5.43;;;;;;;;;;5132654;27;20051;-78
2023/06/18 12:26:54;;;;;;;8.20;5.70;;;;;;;;;;5115251;27;20051;-78
2023/06/18 12:29:21;;;;;;;8.35;5.80;;;;;;;;;;5133471;27;20051;-77
2023/06/18 12:32:03;;;;;;;8.70;5.38;;;;;;;;;;5133354;27;20051;-78
2023/06/18 12:34:33;;;;;;;9.25;5.60;;;;;;;;;;5133325;27;20388;-78
2023/06/18 12:36:59;;;;;;;8.57;5.25;;;;;;;;;;5133115;27;20054;-78
2023/06/18 12:39:25;;;;;;;7.78;5.85;;;;;;;;;;5114172;27;20135;-78
2023/06/18 12:41:51;;;;;;;7.00;5.72;;;;;;;;;;5113916;28;20352;-77
2023/06/18 12:44:21;;;;;;;6.13;5.43;;;;;;;;;;5115099;27;20390;-78
2023/06/18 12:46:49;;;;;;;7.78;5.60;;;;;;;;;;5114987;27;20088;-77
2023/06/18 12:49:15;;;;;;;8.43;5.68;;;;;;;;;;5133056;27;20047;-78
2023/06/18 12:51:42;;;;;;;8.50;5.40;;;;;;;;;;5132942;27;20084;-78
2023/06/18 12:54:15;;;;;;;6.95;5.53;;;;;;;;;;5133136;28;20051;-77
2023/06/18 12:56:51;;;;;;;9.88;6.38;;;;;;;;;;5132946;28;20042;-78
2023/06/18 12:59:18;;;;;;;7.55;5.72;;;;;;;;;;5143137;27;20417;-78
2023/06/18 13:01:46;;;;;;;6.65;5.60;;;;;;;;;;5120577;28;20049;-78
2023/06/18 13:04:12;;;;;;;8.25;5.82;;;;;;;;;;5134131;27;20046;-77
2023/06/18 13:06:38;;;;;;;7.30;5.38;;;;;;;;;;5145345;27;20035;-77
2023/06/18 13:09:05;;;;;;;8.43;5.90;;;;;;;;;;5149598;27;20065;-77
2023/06/18 13:11:36;;;;;;;7.35;5.80;;;;;;;;;;5134350;27;20051;-77
2023/06/18 13:14:03;;;;;;;8.93;5.70;;;;;;;;;;5132073;28;20054;-78
2023/06/18 13:16:29;;;;;;;8.05;5.70;;;;;;;;;;5131004;28;20469;-77
2023/06/18 13:18:55;;;;;;;6.88;5.82;;;;;;;;;;5134382;27;20038;-78
2023/06/18 13:21:21;;;;;;;7.53;5.95;;;;;;;;;;5136600;27;20107;-78
2023/06/18 13:23:47;;;;;;;8.07;6.00;;;;;;;;;;5138392;27;20043;-78
2023/06/18 13:26:14;;;;;;;8.40;6.10;;;;;;;;;;5136893;27;20407;-75
2023/06/18 13:28:40;;;;;;;6.93;5.60;;;;;;;;;;5136485;27;20045;-76
2023/06/18 13:31:07;;;;;;;8.30;5.43;;;;;;;;;;5118152;27;20506;-76
2023/06/18 13:33:33;;;;;;;6.95;5.53;;;;;;;;;;5136701;27;20050;-76
2023/06/18 13:35:59;;;;;;;8.90;6.40;;;;;;;;;;5136759;27;20043;-76
2023/06/18 13:38:25;;;;;;;7.95;5.88;;;;;;;;;;5118163;27;20043;-76
2023/06/18 13:40:51;;;;;;;7.72;6.10;;;;;;;;;;5135727;27;20046;-76
2023/06/18 13:43:18;;;;;;;7.28;5.55;;;;;;;;;;5141778;27;20432;-76
2023/06/18 13:45:44;;;;;;;7.78;6.20;;;;;;;;;;5138871;27;20049;-76
2023/06/18 13:48:12;;;;;;;8.55;5.63;;;;;;;;;;5137812;27;20050;-77
2023/06/18 13:50:38;;;;;;;8.80;6.00;;;;;;;;;;5150922;27;20122;-76
2023/06/18 13:53:04;;;;;;;8.52;5.55;;;;;;;;;;5148183;27;20057;-76
2023/06/18 13:55:31;;;;;;;6.75;5.63;;;;;;;;;;5137840;27;20050;-77
2023/06/18 13:57:57;;;;;;;7.20;5.78;;;;;;;;;;5118799;27;20174;-76
2023/06/18 14:00:23;;;;;;;7.25;5.10;;;;;;;;;;5136243;27;20039;-77
2023/06/18 14:02:49;;;;;;;6.18;5.35;;;;;;;;;;5117608;27;20504;-76
2023/06/18 14:05:16;;;;;;;7.07;5.50;;;;;;;;;;5116653;27;20043;-77
2023/06/18 14:07:42;;;;;;;10.80;5.82;;;;;;;;;;5135576;27;20055;-75
2023/06/18 14:10:09;;;;;;;8.88;5.70;;;;;;;;;;5135375;27;20043;-77
2023/06/18 14:12:35;;;;;;;8.90;5.70;;;;;;;;;;5135102;27;20051;-78
2023/06/18 14:15:03;;;;;;;8.77;5.90;;;;;;;;;;5143700;27;20539;-78
2023/06/18 14:17:29;;;;;;;12.35;5.50;;;;;;;;;;5156760;27;20050;-77
2023/06/18 14:19:56;;;;;;;8.32;5.50;;;;;;;;;;5156518;27;20042;-77
2023/06/18 14:22:22;;;;;;;7.63;5.55;;;;;;;;;;5156773;27;20050;-78
2023/06/18 14:24:50;;;;;;;10.32;5.82;;;;;;;;;;5136688;27;20129;-78
2023/06/18 14:27:17;;;;;;;9.93;5.90;;;;;;;;;;5137016;27;20058;-77